createdAt,value
2023-11-01T00:00:32.221Z,7.78
2023-11-01T00:03:21.713Z,7.64
2023-11-01T00:05:52.141Z,7.64
2023-11-01T00:08:21.374Z,7.56
2023-11-01T00:10:50.320Z,7.57
2023-11-01T00:13:19.691Z,7.52
2023-11-01T00:15:48.651Z,7.54
2023-11-01T00:18:18.047Z,7.56
2023-11-01T00:20:47.104Z,7.56
2023-11-01T00:23:17.818Z,7.61
2023-11-01T00:25:46.912Z,7.28
2023-11-01T00:28:16.340Z,7.52
2023-11-01T00:30:45.388Z,7.52
2023-11-01T00:33:15.175Z,7.48
2023-11-01T00:35:44.311Z,7.49
2023-11-01T00:38:13.734Z,7.45
2023-11-01T00:40:44.097Z,7.47
2023-11-01T00:43:13.489Z,7.37
2023-11-01T00:45:42.531Z,7.59
2023-11-01T00:48:11.957Z,7.38
2023-11-01T00:50:41.142Z,7.28
2023-11-01T00:53:11.505Z,7.35
2023-11-01T00:55:40.504Z,7.28
2023-11-01T00:58:11.282Z,7.31
2023-11-01T01:00:40.230Z,7.28
2023-11-01T01:03:11.950Z,7.29
2023-11-01T01:05:42.891Z,7.28
2023-11-01T01:08:12.423Z,7.26
2023-11-01T01:10:41.402Z,7.24
2023-11-01T01:13:12.150Z,7.17
2023-11-01T01:15:41.191Z,7.24
2023-11-01T01:18:10.778Z,7.25
2023-11-01T01:20:40.392Z,7.21
2023-11-01T01:23:10.747Z,7.18
2023-11-01T01:25:39.700Z,7.23
2023-11-01T01:28:09.630Z,7.19
2023-11-01T01:30:40.179Z,7.18
2023-11-01T01:33:09.508Z,7.19
2023-11-01T01:35:38.586Z,7.13
2023-11-01T01:38:08.042Z,7.05
2023-11-01T01:40:37.199Z,7.15
2023-11-01T01:43:18.076Z,7.09
2023-11-01T01:46:00.999Z,7.01
2023-11-01T01:48:30.649Z,7.02
2023-11-01T01:50:59.707Z,6.92
2023-11-01T01:53:29.529Z,6.96
2023-11-01T01:55:59.170Z,6.89
2023-11-01T01:58:29.627Z,6.85
2023-11-01T02:01:00.950Z,6.88
2023-11-01T02:03:30.767Z,6.86
2023-11-01T02:06:00.129Z,6.86
2023-11-01T02:08:29.672Z,6.65
2023-11-01T02:10:58.846Z,6.64
2023-11-01T02:13:28.194Z,6.77
2023-11-01T02:15:57.366Z,6.64
2023-11-01T02:18:28.169Z,6.50
2023-11-01T02:20:57.680Z,6.49
2023-11-01T02:23:36.401Z,6.39
2023-11-01T02:26:05.874Z,6.43
2023-11-01T02:28:35.305Z,6.33
2023-11-01T02:31:04.765Z,6.27
2023-11-01T02:33:34.020Z,6.44
2023-11-01T02:36:03.731Z,6.25
2023-11-01T02:38:34.407Z,6.23
2023-11-01T02:41:05.005Z,6.19
2023-11-01T02:43:34.454Z,6.20
2023-11-01T02:46:04.393Z,6.16
2023-11-01T02:48:33.799Z,6.22
2023-11-01T02:51:03.111Z,6.23
2023-11-01T02:53:32.392Z,6.23
2023-11-01T02:56:02.722Z,6.21
2023-11-01T02:58:32.068Z,6.22
2023-11-01T03:01:00.992Z,6.26
2023-11-01T03:03:30.497Z,6.20
2023-11-01T03:05:59.594Z,6.20
2023-11-01T03:08:29.010Z,6.21
2023-11-01T03:10:57.959Z,6.35
2023-11-01T03:13:28.580Z,6.30
2023-11-01T03:15:57.831Z,6.39
2023-11-01T03:18:27.236Z,6.47
2023-11-01T03:20:56.319Z,6.37
2023-11-01T03:23:25.685Z,6.34
2023-11-01T03:25:54.684Z,6.37
2023-11-01T03:28:23.988Z,6.31
2023-11-01T03:30:54.391Z,6.25
2023-11-01T03:33:23.894Z,6.20
2023-11-01T03:35:52.956Z,6.23
2023-11-01T03:38:22.564Z,6.18
2023-11-01T03:40:51.609Z,6.16
2023-11-01T03:43:20.847Z,6.12
2023-11-01T03:45:50.921Z,6.02
2023-11-01T03:48:21.697Z,6.06
2023-11-01T03:50:50.856Z,6.08
2023-11-01T03:53:20.270Z,6.05
2023-11-01T03:55:49.380Z,5.98
2023-11-01T03:58:18.706Z,5.93
2023-11-01T04:00:47.773Z,5.88
2023-11-01T04:03:17.158Z,5.92
2023-11-01T04:05:47.601Z,5.89
2023-11-01T04:08:17.047Z,5.85
2023-11-01T04:10:45.011Z,5.87
2023-11-01T04:13:14.433Z,5.72
2023-11-01T04:15:43.566Z,5.68
2023-11-01T04:18:13.039Z,5.62
2023-11-01T04:20:42.106Z,5.54
2023-11-01T04:23:12.700Z,5.50
2023-11-01T04:25:42.571Z,5.46
2023-11-01T04:28:11.920Z,5.46
2023-11-01T04:30:41.896Z,5.39
2023-11-01T04:33:13.315Z,5.36
2023-11-01T04:35:42.418Z,5.33
2023-11-01T04:38:14.741Z,5.29
2023-11-01T04:40:44.117Z,5.22
2023-11-01T04:43:14.516Z,5.21
2023-11-01T04:45:43.561Z,5.13
2023-11-01T04:48:12.993Z,5.13
2023-11-01T04:50:42.147Z,5.08
2023-11-01T04:53:13.310Z,5.03
2023-11-01T04:55:43.396Z,4.96
2023-11-01T04:58:13.528Z,4.99
2023-11-01T05:00:42.497Z,4.97
2023-11-01T05:03:11.886Z,5.01
2023-11-01T05:05:40.937Z,5.04
2023-11-01T05:08:10.276Z,5.13
2023-11-01T05:10:40.687Z,5.13
2023-11-01T05:13:10.371Z,5.14
2023-11-01T05:15:40.824Z,5.25
2023-11-01T05:18:10.272Z,5.25
2023-11-01T05:20:40.304Z,5.27
2023-11-01T05:23:09.924Z,5.35
2023-11-01T05:25:40.877Z,5.37
2023-11-01T05:28:10.334Z,5.36
2023-11-01T05:30:39.395Z,5.41
2023-11-01T05:33:08.798Z,5.46
2023-11-01T05:35:38.253Z,5.52
2023-11-01T05:38:08.246Z,5.58
2023-11-01T05:40:37.500Z,5.59
2023-11-01T05:43:08.182Z,5.64
2023-11-01T05:45:37.119Z,5.62
2023-11-01T05:48:10.059Z,5.66
2023-11-01T05:50:42.522Z,5.71
2023-11-01T05:53:12.552Z,5.69
2023-11-01T05:55:54.594Z,5.69
2023-11-01T05:58:32.386Z,5.80
2023-11-01T06:01:02.344Z,5.70
2023-11-01T06:03:32.473Z,5.78
2023-11-01T06:06:01.708Z,5.78
2023-11-01T06:08:31.042Z,5.74
2023-11-01T06:11:00.130Z,5.86
2023-11-01T06:13:30.920Z,5.82
2023-11-01T06:16:06.162Z,5.88
2023-11-01T06:18:35.738Z,5.82
2023-11-01T06:21:06.051Z,5.81
2023-11-01T06:23:37.860Z,5.83
2023-11-01T06:26:07.086Z,5.87
2023-11-01T06:28:37.649Z,5.85
2023-11-01T06:31:06.855Z,5.84
2023-11-01T06:33:36.229Z,5.89
2023-11-01T06:36:06.424Z,5.86
2023-11-01T06:38:37.415Z,5.88
2023-11-01T06:41:07.448Z,5.88
2023-11-01T06:43:38.100Z,5.85
2023-11-01T06:46:07.312Z,5.86
2023-11-01T06:48:36.688Z,5.88
2023-11-01T06:51:06.317Z,5.88
2023-11-01T06:53:35.629Z,5.94
2023-11-01T06:56:05.872Z,5.94
2023-11-01T06:58:35.258Z,5.92
2023-11-01T07:01:07.396Z,5.95
2023-11-01T07:03:37.060Z,5.93
2023-11-01T07:06:08.093Z,5.96
2023-11-01T07:08:37.519Z,5.97
2023-11-01T07:11:06.800Z,6.01
2023-11-01T07:13:36.201Z,6.03
2023-11-01T07:16:07.844Z,6.04
2023-11-01T07:18:39.902Z,6.09
2023-11-01T07:21:11.230Z,6.08
2023-11-01T07:23:40.427Z,6.07
2023-11-01T07:26:09.636Z,6.11
2023-11-01T07:28:39.212Z,6.13
2023-11-01T07:31:09.622Z,6.18
2023-11-01T07:33:39.086Z,6.20
2023-11-01T07:36:09.341Z,6.21
2023-11-01T07:38:42.504Z,6.20
2023-11-01T07:41:13.974Z,6.22
2023-11-01T07:43:43.383Z,6.20
2023-11-01T07:46:14.806Z,6.26
2023-11-01T07:48:44.677Z,6.24
2023-11-01T07:51:13.760Z,6.33
2023-11-01T07:53:43.194Z,6.22
2023-11-01T07:56:12.755Z,6.28
2023-11-01T07:58:42.222Z,6.21
2023-11-01T08:01:12.513Z,6.20
2023-11-01T08:03:42.077Z,6.22
2023-11-01T08:06:11.457Z,6.28
2023-11-01T08:08:40.850Z,6.22
2023-11-01T08:11:10.001Z,6.30
2023-11-01T08:13:39.486Z,6.25
2023-11-01T08:16:09.376Z,6.25
2023-11-01T08:18:40.235Z,6.35
2023-11-01T08:21:09.252Z,6.34
2023-11-01T08:23:38.525Z,6.32
2023-11-01T08:26:07.562Z,6.36
2023-11-01T08:28:36.937Z,6.39
2023-11-01T08:31:06.160Z,6.42
2023-11-01T08:33:35.791Z,6.38
2023-11-01T08:36:07.083Z,6.40
2023-11-01T08:38:36.340Z,6.42
2023-11-01T08:41:05.755Z,6.40
2023-11-01T08:43:35.218Z,6.43
2023-11-01T08:46:04.301Z,6.44
2023-11-01T08:48:33.621Z,6.46
2023-11-01T08:51:02.681Z,6.47
2023-11-01T08:53:33.720Z,6.49
2023-11-01T08:56:02.774Z,6.49
2023-11-01T08:58:32.442Z,6.53
2023-11-01T09:01:01.614Z,6.51
2023-11-01T09:03:31.309Z,6.59
2023-11-01T09:06:00.441Z,6.60
2023-11-01T09:08:29.888Z,6.53
2023-11-01T09:11:00.269Z,6.56
2023-11-01T09:13:29.564Z,6.59
2023-11-01T09:15:58.561Z,6.60
2023-11-01T09:18:27.919Z,6.58
2023-11-01T09:20:57.129Z,6.61
2023-11-01T09:23:26.578Z,6.68
2023-11-01T09:25:55.552Z,6.69
2023-11-01T09:28:26.177Z,6.66
2023-11-01T09:30:55.148Z,6.66
2023-11-01T09:33:25.408Z,6.72
2023-11-01T09:35:54.625Z,6.72
2023-11-01T09:38:24.191Z,6.82
2023-11-01T09:40:54.312Z,6.85
2023-11-01T09:43:27.011Z,6.82
2023-11-01T09:45:56.131Z,6.77
2023-11-01T09:48:26.237Z,6.73
2023-11-01T09:50:59.594Z,6.76
2023-11-01T09:53:29.076Z,6.75
2023-11-01T09:55:59.037Z,6.75
2023-11-01T09:58:30.714Z,6.74
2023-11-01T10:01:00.306Z,6.74
2023-11-01T10:03:29.777Z,6.75
2023-11-01T10:05:58.945Z,6.74
2023-11-01T10:08:28.469Z,6.74
2023-11-01T10:11:29.099Z,6.79
2023-11-01T10:14:01.838Z,6.73
2023-11-01T10:16:32.606Z,6.78
2023-11-01T10:19:04.492Z,6.70
2023-11-01T10:21:34.038Z,6.72
2023-11-01T10:24:04.715Z,6.77
2023-11-01T10:26:33.761Z,6.81
2023-11-01T10:29:05.732Z,6.82
2023-11-01T10:31:34.714Z,6.85
2023-11-01T10:34:13.485Z,6.82
2023-11-01T10:36:53.525Z,6.75
2023-11-01T10:39:24.041Z,6.82
2023-11-01T10:41:55.951Z,6.86
2023-11-01T10:44:27.687Z,6.87
2023-11-01T10:46:57.124Z,6.86
2023-11-01T10:49:27.605Z,6.91
2023-11-01T10:51:58.905Z,6.84
2023-11-01T10:54:28.596Z,6.92
2023-11-01T10:56:59.498Z,6.96
2023-11-01T10:59:36.835Z,6.98
2023-11-01T11:02:18.329Z,7.00
2023-11-01T11:04:55.165Z,7.11
2023-11-01T11:07:34.907Z,7.15
2023-11-01T11:10:27.251Z,7.19
2023-11-01T11:13:27.642Z,7.25
2023-11-01T11:16:02.624Z,7.35
2023-11-01T11:18:57.298Z,7.30
2023-11-01T11:22:03.507Z,7.36
2023-11-01T11:24:56.789Z,7.30
2023-11-01T11:27:52.350Z,7.31
2023-11-01T11:31:01.933Z,7.35
2023-11-01T11:33:33.281Z,7.30
2023-11-01T11:36:17.353Z,7.32
2023-11-01T11:38:51.722Z,7.36
2023-11-01T11:41:21.885Z,7.30
2023-11-01T11:44:08.809Z,7.48
2023-11-01T11:46:41.597Z,7.82
2023-11-01T11:49:21.637Z,7.78
2023-11-01T11:51:53.244Z,7.63
2023-11-01T11:54:24.013Z,7.84
2023-11-01T11:56:57.623Z,8.08
2023-11-01T11:59:28.315Z,8.28
2023-11-01T12:02:07.988Z,8.38
2023-11-01T12:04:39.739Z,8.44
2023-11-01T12:07:16.876Z,8.26
2023-11-01T12:09:50.331Z,8.33
2023-11-01T12:12:19.713Z,7.99
2023-11-01T12:14:58.435Z,8.07
2023-11-01T12:17:29.228Z,8.17
2023-11-01T12:19:59.650Z,8.40
2023-11-01T12:22:28.741Z,8.47
2023-11-01T12:24:58.124Z,8.41
2023-11-01T12:27:33.418Z,8.58
2023-11-01T12:30:04.135Z,8.53
2023-11-01T12:32:36.147Z,8.49
2023-11-01T12:35:10.620Z,8.46
2023-11-01T12:37:43.145Z,8.31
2023-11-01T12:40:13.860Z,8.23
2023-11-01T12:42:44.945Z,8.31
2023-11-01T12:45:14.807Z,8.19
2023-11-01T12:47:47.157Z,8.16
2023-11-01T12:50:20.675Z,8.20
2023-11-01T12:52:50.597Z,8.09
2023-11-01T12:55:21.225Z,8.07
2023-11-01T12:57:51.798Z,8.08
2023-11-01T13:00:22.795Z,8.00
2023-11-01T13:02:54.319Z,8.14
2023-11-01T13:05:24.065Z,7.95
2023-11-01T13:07:58.210Z,7.91
2023-11-01T13:10:28.593Z,7.83
2023-11-01T13:12:57.625Z,7.79
2023-11-01T13:15:27.523Z,7.91
2023-11-01T13:17:58.771Z,7.83
2023-11-01T13:20:27.929Z,7.83
2023-11-01T13:22:57.069Z,7.79
2023-11-01T13:25:26.277Z,7.79
2023-11-01T13:27:55.207Z,7.82
2023-11-01T13:30:24.624Z,7.77
2023-11-01T13:32:53.685Z,7.76
2023-11-01T13:35:24.555Z,7.79
2023-11-01T13:37:53.527Z,7.67
2023-11-01T13:40:22.786Z,7.66
2023-11-01T13:42:51.766Z,7.64
2023-11-01T13:45:21.189Z,7.65
2023-11-01T13:47:51.236Z,7.62
2023-11-01T13:50:20.675Z,7.57
2023-11-01T13:52:51.272Z,7.53
2023-11-01T13:55:21.387Z,7.48
2023-11-01T13:57:50.427Z,7.45
2023-11-01T14:00:20.157Z,7.43
2023-11-01T14:02:49.287Z,7.39
2023-11-01T14:05:19.416Z,7.35
2023-11-01T14:07:51.908Z,7.26
2023-11-01T14:10:21.465Z,7.24
2023-11-01T14:12:50.576Z,7.21
2023-11-01T14:15:20.552Z,7.15
2023-11-01T14:17:50.111Z,7.08
2023-11-01T14:20:20.138Z,7.08
2023-11-01T14:22:52.620Z,6.99
2023-11-01T14:25:22.265Z,6.88
2023-11-01T14:27:52.047Z,6.84
2023-11-01T14:30:21.748Z,6.73
2023-11-01T14:32:51.831Z,6.56
2023-11-01T14:35:21.497Z,6.45
2023-11-01T14:37:52.021Z,6.36
2023-11-01T14:40:21.346Z,6.29
2023-11-01T14:42:51.270Z,6.24
2023-11-01T14:45:20.643Z,6.21
2023-11-01T14:47:50.789Z,6.18
2023-11-01T14:50:20.349Z,6.13
2023-11-01T14:52:50.513Z,6.12
2023-11-01T14:55:21.732Z,6.02
2023-11-01T14:57:50.876Z,5.92
2023-11-01T15:00:20.958Z,5.79
2023-11-01T15:02:50.080Z,5.67
2023-11-01T15:05:20.414Z,5.58
2023-11-01T15:07:49.388Z,5.49
2023-11-01T15:10:20.378Z,5.28
2023-11-01T15:12:49.378Z,5.20
2023-11-01T15:15:19.021Z,5.16
2023-11-01T15:17:50.207Z,5.08
2023-11-01T15:20:19.782Z,5.02
2023-11-01T15:22:50.803Z,4.87
2023-11-01T15:25:21.658Z,4.67
2023-11-01T15:27:50.799Z,4.54
2023-11-01T15:30:20.987Z,4.52
2023-11-01T15:32:50.430Z,4.43
2023-11-01T15:35:20.844Z,4.35
2023-11-01T15:37:49.830Z,4.28
2023-11-01T15:40:20.648Z,4.14
2023-11-01T15:42:51.237Z,3.99
2023-11-01T15:45:20.694Z,3.97
2023-11-01T15:47:49.738Z,3.86
2023-11-01T15:50:19.440Z,3.84
2023-11-01T15:52:48.519Z,3.84
2023-11-01T15:55:18.566Z,3.76
2023-11-01T15:57:49.990Z,3.75
2023-11-01T16:00:19.619Z,3.76
2023-11-01T16:02:49.101Z,3.54
2023-11-01T16:05:19.535Z,3.49
2023-11-01T16:07:48.564Z,3.33
2023-11-01T16:10:18.145Z,3.22
2023-11-01T16:12:48.569Z,3.32
2023-11-01T16:15:20.740Z,3.37
2023-11-01T16:17:52.071Z,3.32
2023-11-01T16:20:21.411Z,3.22
2023-11-01T16:22:52.445Z,3.07
2023-11-01T16:25:21.779Z,2.87
2023-11-01T16:27:52.153Z,2.80
2023-11-01T16:30:21.817Z,2.86
2023-11-01T16:32:57.099Z,2.88
2023-11-01T16:35:27.483Z,2.88
2023-11-01T16:37:56.465Z,2.69
2023-11-01T16:40:26.462Z,2.60
2023-11-01T16:42:56.754Z,2.59
2023-11-01T16:45:26.538Z,2.48
2023-11-01T16:47:59.084Z,2.53
2023-11-01T16:50:54.463Z,2.38
2023-11-01T16:53:23.695Z,2.31
2023-11-01T16:55:55.165Z,2.28
2023-11-01T16:58:25.552Z,2.30
2023-11-01T17:00:55.019Z,2.33
2023-11-01T17:03:24.240Z,2.30
2023-11-01T17:05:54.537Z,2.22
2023-11-01T17:08:24.269Z,2.22
2023-11-01T17:10:53.523Z,2.17
2023-11-01T17:13:24.867Z,2.20
2023-11-01T17:15:57.433Z,2.16
2023-11-01T17:18:26.806Z,1.98
2023-11-01T17:20:56.222Z,1.97
2023-11-01T17:23:25.420Z,1.90
2023-11-01T17:26:23.457Z,1.77
2023-11-01T17:28:54.546Z,1.65
2023-11-01T17:31:44.137Z,1.64
2023-11-01T17:34:14.799Z,1.73
2023-11-01T17:36:44.125Z,1.65
2023-11-01T17:39:19.004Z,1.59
2023-11-01T17:42:04.989Z,1.62
2023-11-01T17:44:38.733Z,1.59
2023-11-01T17:47:10.339Z,1.53
2023-11-01T17:49:54.359Z,1.48
2023-11-01T17:52:33.983Z,1.39
2023-11-01T17:55:08.166Z,1.34
2023-11-01T17:57:40.460Z,1.38
2023-11-01T18:00:12.088Z,1.30
2023-11-01T18:03:22.967Z,1.26
2023-11-01T18:05:54.045Z,1.28
2023-11-01T18:08:35.444Z,1.28
2023-11-01T18:11:08.656Z,1.38
2023-11-01T18:13:42.009Z,1.41
2023-11-01T18:16:13.385Z,1.14
2023-11-01T18:18:45.196Z,1.10
2023-11-01T18:21:21.537Z,1.22
2023-11-01T18:23:56.869Z,1.33
2023-11-01T18:26:27.045Z,1.36
2023-11-01T18:29:05.893Z,1.39
2023-11-01T18:31:42.059Z,1.40
2023-11-01T18:34:13.569Z,1.30
2023-11-01T18:36:47.191Z,1.28
2023-11-01T18:39:31.795Z,1.23
2023-11-01T18:42:02.515Z,1.22
2023-11-01T18:44:37.381Z,1.11
2023-11-01T18:47:12.343Z,0.98
2023-11-01T18:49:56.276Z,0.89
2023-11-01T18:52:27.180Z,0.96
2023-11-01T18:55:01.484Z,1.03
2023-11-01T18:57:36.358Z,1.00
2023-11-01T19:00:10.738Z,1.05
2023-11-01T19:03:07.242Z,1.00
2023-11-01T19:05:38.162Z,0.84
2023-11-01T19:08:07.637Z,0.72
2023-11-01T19:10:40.794Z,0.82
2023-11-01T19:13:10.320Z,0.88
2023-11-01T19:16:16.127Z,0.72
2023-11-01T19:18:51.502Z,0.63
2023-11-01T19:21:23.870Z,0.64
2023-11-01T19:24:02.117Z,0.63
2023-11-01T19:26:31.439Z,0.73
2023-11-01T19:29:02.288Z,0.63
2023-11-01T19:31:31.924Z,0.64
2023-11-01T19:34:02.826Z,0.63
2023-11-01T19:36:32.868Z,0.48
2023-11-01T19:39:07.924Z,0.58
2023-11-01T19:41:41.159Z,0.72
2023-11-01T19:44:13.638Z,0.70
2023-11-01T19:46:44.197Z,0.59
2023-11-01T19:49:15.052Z,0.53
2023-11-01T19:51:44.747Z,0.65
2023-11-01T19:54:13.944Z,0.73
2023-11-01T19:56:48.153Z,0.74
2023-11-01T19:59:20.022Z,0.71
2023-11-01T20:01:49.512Z,0.74
2023-11-01T20:04:20.302Z,0.78
2023-11-01T20:06:52.639Z,0.81
2023-11-01T20:09:23.618Z,0.81
2023-11-01T20:12:00.418Z,0.77
2023-11-01T20:14:36.428Z,0.72
2023-11-01T20:17:13.559Z,0.58
2023-11-01T20:19:44.742Z,0.44
2023-11-01T20:22:16.114Z,0.35
2023-11-01T20:24:50.753Z,0.34
2023-11-01T20:27:20.544Z,0.36
2023-11-01T20:29:49.655Z,0.38
2023-11-01T20:32:22.010Z,0.32
2023-11-01T20:34:54.460Z,0.34
2023-11-01T20:37:25.509Z,0.42
2023-11-01T20:39:54.987Z,0.51
2023-11-01T20:42:27.337Z,0.45
2023-11-01T20:44:58.918Z,0.39
2023-11-01T20:47:29.475Z,0.40
2023-11-01T20:50:00.139Z,0.45
2023-11-01T20:52:29.693Z,0.56
2023-11-01T20:55:02.618Z,0.42
2023-11-01T20:57:35.233Z,0.38
2023-11-01T21:00:05.285Z,0.38
2023-11-01T21:02:36.261Z,0.50
2023-11-01T21:05:07.397Z,0.52
2023-11-01T21:07:38.095Z,0.51
2023-11-01T21:10:08.244Z,0.52
2023-11-01T21:12:39.419Z,0.48
2023-11-01T21:15:11.524Z,0.59
2023-11-01T21:17:41.503Z,0.67
2023-11-01T21:20:12.770Z,0.72
2023-11-01T21:22:42.533Z,0.61
2023-11-01T21:25:12.493Z,0.74
2023-11-01T21:27:41.815Z,0.82
2023-11-01T21:30:11.950Z,0.70
2023-11-01T21:32:41.427Z,0.67
2023-11-01T21:35:11.961Z,0.66
2023-11-01T21:37:41.792Z,0.75
2023-11-01T21:40:12.481Z,0.85
2023-11-01T21:42:41.982Z,0.80
2023-11-01T21:45:16.486Z,0.79
2023-11-01T21:47:45.981Z,0.82
2023-11-01T21:50:48.841Z,0.89
2023-11-01T21:53:18.164Z,0.94
2023-11-01T21:55:54.665Z,0.94
2023-11-01T21:58:26.598Z,1.00
2023-11-01T22:00:59.668Z,1.08
2023-11-01T22:03:40.641Z,1.08
2023-11-01T22:06:13.693Z,1.13
2023-11-01T22:08:59.140Z,1.22
2023-11-01T22:11:30.592Z,1.34
2023-11-01T22:14:01.007Z,1.40
2023-11-01T22:16:31.747Z,1.46
2023-11-01T22:19:03.293Z,1.55
2023-11-01T22:21:38.580Z,1.65
2023-11-01T22:24:09.383Z,1.74
2023-11-01T22:26:38.453Z,1.78
2023-11-01T22:29:09.420Z,1.83
2023-11-01T22:31:52.135Z,1.88
2023-11-01T22:34:23.648Z,1.94
2023-11-01T22:36:54.853Z,1.97
2023-11-01T22:39:41.313Z,1.99
2023-11-01T22:42:12.816Z,2.04
2023-11-01T22:44:45.377Z,2.06
2023-11-01T22:47:15.208Z,2.10
2023-11-01T22:49:44.951Z,2.16
2023-11-01T22:52:15.286Z,2.20
2023-11-01T22:54:44.636Z,2.23
2023-11-01T22:57:13.746Z,2.28
2023-11-01T22:59:43.333Z,2.34
2023-11-01T23:02:14.739Z,2.35
2023-11-01T23:04:45.694Z,2.35
2023-11-01T23:07:16.236Z,2.37
2023-11-01T23:09:45.537Z,2.42
2023-11-01T23:12:14.576Z,2.50
2023-11-01T23:14:43.923Z,2.55
2023-11-01T23:17:13.004Z,2.58
2023-11-01T23:19:42.577Z,2.68
2023-11-01T23:22:12.188Z,2.71
2023-11-01T23:24:42.896Z,2.77
2023-11-01T23:27:12.757Z,2.81
2023-11-01T23:29:43.023Z,2.86
2023-11-01T23:32:13.611Z,2.84
2023-11-01T23:34:46.252Z,2.89
2023-11-01T23:37:23.497Z,2.89
2023-11-01T23:39:54.401Z,2.91
2023-11-01T23:42:23.371Z,2.93
2023-11-01T23:44:54.396Z,2.95
2023-11-01T23:47:44.696Z,2.93
2023-11-01T23:50:32.055Z,2.99
2023-11-01T23:53:02.503Z,3.09
2023-11-01T23:55:33.543Z,3.10
2023-11-01T23:58:02.899Z,3.11
